createdAt,value
2022-08-12T00:00:09.265Z,17.52
2022-08-12T00:03:29.745Z,17.49
2022-08-12T00:06:52.072Z,17.48
2022-08-12T00:10:12.633Z,17.48
2022-08-12T00:13:32.874Z,17.43
2022-08-12T00:16:53.343Z,17.36
2022-08-12T00:20:13.181Z,17.28
2022-08-12T00:23:33.574Z,17.22
2022-08-12T00:26:54.104Z,17.20
2022-08-12T00:30:15.122Z,17.15
2022-08-12T00:33:51.679Z,17.08
2022-08-12T00:37:14.453Z,17.03
2022-08-12T00:40:35.048Z,16.95
2022-08-12T00:43:36.973Z,16.89
2022-08-12T00:46:49.494Z,16.82
2022-08-12T00:49:51.428Z,16.78
2022-08-12T00:52:53.096Z,16.74
2022-08-12T00:59:03.050Z,16.75
2022-08-12T01:02:11.196Z,16.75
2022-08-12T01:05:38.018Z,16.74
2022-08-12T01:08:58.388Z,16.73
2022-08-12T01:12:00.496Z,16.70
2022-08-12T01:15:02.894Z,16.69
2022-08-12T01:18:05.766Z,16.68
2022-08-12T01:21:19.370Z,16.66
2022-08-12T01:24:48.367Z,16.62
2022-08-12T01:27:53.200Z,16.56
2022-08-12T01:30:57.241Z,16.50
2022-08-12T01:34:28.658Z,16.46
2022-08-12T01:37:42.415Z,16.43
2022-08-12T01:40:47.128Z,16.41
2022-08-12T01:43:50.632Z,16.41
2022-08-12T01:47:34.332Z,16.36
2022-08-12T01:51:05.307Z,16.32
2022-08-12T01:54:21.808Z,16.25
2022-08-12T01:57:58.403Z,16.21
2022-08-12T02:01:03.718Z,16.17
2022-08-12T02:04:40.679Z,16.14
2022-08-12T02:08:15.139Z,16.08
2022-08-12T02:11:23.274Z,16.03
2022-08-12T02:14:30.846Z,16.01
2022-08-12T02:17:55.652Z,15.98
2022-08-12T02:21:05.758Z,15.95
2022-08-12T02:24:13.346Z,15.92
2022-08-12T02:27:17.420Z,15.88
2022-08-12T02:30:21.389Z,15.85
2022-08-12T02:33:24.015Z,15.81
2022-08-12T02:36:27.836Z,15.76
2022-08-12T02:39:37.223Z,15.74
2022-08-12T02:42:44.156Z,15.71
2022-08-12T02:46:14.789Z,15.67
2022-08-12T02:49:29.641Z,15.61
2022-08-12T02:52:33.022Z,15.56
2022-08-12T02:55:36.557Z,15.54
2022-08-12T02:58:41.276Z,15.49
2022-08-12T03:01:50.417Z,15.47
2022-08-12T03:04:56.738Z,15.42
2022-08-12T03:08:04.522Z,15.38
2022-08-12T03:11:15.174Z,15.34
2022-08-12T03:14:20.466Z,15.30
2022-08-12T03:17:36.552Z,15.27
2022-08-12T03:20:40.295Z,15.23
2022-08-12T03:23:42.476Z,15.19
2022-08-12T03:26:45.485Z,15.15
2022-08-12T03:29:50.307Z,15.09
2022-08-12T03:32:55.408Z,15.06
2022-08-12T03:35:59.822Z,15.03
2022-08-12T03:39:17.169Z,15.00
2022-08-12T03:42:38.253Z,14.96
2022-08-12T03:45:58.868Z,14.91
2022-08-12T03:49:19.787Z,14.85
2022-08-12T03:52:40.250Z,14.79
2022-08-12T03:56:00.765Z,14.74
2022-08-12T03:59:23.557Z,14.69
2022-08-12T04:02:25.608Z,14.65
2022-08-12T04:05:54.260Z,14.62
2022-08-12T04:08:57.598Z,14.57
2022-08-12T04:12:17.611Z,14.54
2022-08-12T04:15:20.209Z,14.48
2022-08-12T04:18:23.584Z,14.44
2022-08-12T04:21:25.986Z,14.38
2022-08-12T04:24:29.137Z,14.35
2022-08-12T04:27:32.379Z,14.31
2022-08-12T04:30:35.797Z,14.29
2022-08-12T04:33:37.637Z,14.30
2022-08-12T04:36:41.009Z,14.29
2022-08-12T04:39:44.821Z,14.30
2022-08-12T04:42:46.646Z,14.29
2022-08-12T04:45:49.454Z,14.28
2022-08-12T04:48:52.128Z,14.27
2022-08-12T04:51:59.213Z,14.24
2022-08-12T04:55:01.943Z,14.16
2022-08-12T04:58:03.695Z,14.11
2022-08-12T05:01:06.582Z,14.06
2022-08-12T05:04:09.969Z,14.06
2022-08-12T05:07:11.820Z,14.06
2022-08-12T05:10:13.868Z,14.06
2022-08-12T05:13:29.512Z,14.19
2022-08-12T05:16:33.065Z,14.63
2022-08-12T05:19:36.116Z,15.06
2022-08-12T05:22:39.236Z,15.18
2022-08-12T05:25:43.361Z,15.15
2022-08-12T05:28:46.249Z,15.15
2022-08-12T05:31:49.645Z,15.16
2022-08-12T05:34:51.681Z,15.17
2022-08-12T05:38:13.588Z,15.25
2022-08-12T05:41:21.385Z,15.34
2022-08-12T05:44:23.047Z,15.48
2022-08-12T05:47:24.716Z,15.65
2022-08-12T05:50:47.281Z,15.82
2022-08-12T05:53:48.922Z,15.90
2022-08-12T05:56:51.765Z,15.93
2022-08-12T05:59:53.600Z,16.00
2022-08-12T06:03:02.714Z,16.04
2022-08-12T06:06:07.148Z,16.09
2022-08-12T06:09:13.256Z,16.15
2022-08-12T06:12:18.010Z,16.19
2022-08-12T06:15:21.176Z,16.26
2022-08-12T06:18:26.627Z,16.33
2022-08-12T06:21:31.394Z,16.42
2022-08-12T06:24:33.381Z,16.49
2022-08-12T06:28:06.531Z,16.57
2022-08-12T06:31:25.903Z,16.65
2022-08-12T06:35:27.249Z,16.73
2022-08-12T06:37:58.020Z,16.84
2022-08-12T06:41:19.731Z,16.95
2022-08-12T06:44:21.356Z,17.07
2022-08-12T06:47:22.911Z,17.18
2022-08-12T06:50:26.831Z,17.29
2022-08-12T06:53:34.065Z,17.38
2022-08-12T06:59:58.284Z,17.66
2022-08-12T07:03:01.352Z,17.77
2022-08-12T07:06:25.358Z,17.86
2022-08-12T07:09:58.040Z,17.95
2022-08-12T07:12:54.984Z,18.05
2022-08-12T07:15:56.862Z,18.16
2022-08-12T07:19:00.094Z,18.25
2022-08-12T07:22:06.480Z,18.35
2022-08-12T07:25:27.053Z,18.44
2022-08-12T07:28:31.438Z,18.54
2022-08-12T07:31:33.104Z,18.64
2022-08-12T07:34:34.709Z,18.74
2022-08-12T07:37:41.954Z,18.84
2022-08-12T07:40:43.756Z,18.92
2022-08-12T07:43:52.019Z,19.03
2022-08-12T07:46:53.584Z,19.14
2022-08-12T07:50:05.746Z,19.25
2022-08-12T07:53:08.257Z,19.38
2022-08-12T07:56:10.880Z,19.49
2022-08-12T07:59:12.634Z,19.55
2022-08-12T08:02:14.174Z,19.63
2022-08-12T08:05:16.289Z,19.72
2022-08-12T08:08:24.791Z,19.81
2022-08-12T08:11:45.540Z,19.91
2022-08-12T08:14:48.351Z,20.03
2022-08-12T08:18:04.181Z,20.18
2022-08-12T08:21:06.127Z,20.32
2022-08-12T08:24:16.131Z,20.44
2022-08-12T08:27:17.847Z,20.52
2022-08-12T08:30:19.613Z,20.61
2022-08-12T08:33:55.415Z,20.69
2022-08-12T08:36:45.420Z,20.77
2022-08-12T08:39:47.138Z,20.82
2022-08-12T08:42:51.354Z,20.89
2022-08-12T08:45:55.510Z,20.98
2022-08-12T08:48:59.546Z,21.07
2022-08-12T08:52:01.290Z,21.16
2022-08-12T08:55:04.304Z,21.24
2022-08-12T08:58:06.401Z,21.32
2022-08-12T09:01:08.115Z,21.41
2022-08-12T09:05:07.306Z,21.49
2022-08-12T09:07:51.360Z,21.56
2022-08-12T09:12:06.559Z,21.64
2022-08-12T09:18:08.510Z,21.84
2022-08-12T09:21:10.701Z,21.93
2022-08-12T09:24:12.546Z,22.05
2022-08-12T09:27:17.505Z,22.13
2022-08-12T09:30:42.107Z,22.21
2022-08-12T09:34:28.602Z,22.34
2022-08-12T09:37:19.443Z,22.45
2022-08-12T09:40:57.167Z,22.57
2022-08-12T09:44:06.237Z,22.72
2022-08-12T09:47:10.825Z,22.91
2022-08-12T09:50:20.609Z,23.06
2022-08-12T09:53:29.277Z,23.24
2022-08-12T09:56:58.399Z,23.44
2022-08-12T10:00:13.649Z,23.66
2022-08-12T10:03:31.448Z,23.90
2022-08-12T10:06:36.570Z,24.12
2022-08-12T10:09:57.938Z,24.33
2022-08-12T10:13:37.647Z,24.48
2022-08-12T10:16:44.394Z,24.66
2022-08-12T10:19:52.006Z,24.79
2022-08-12T10:22:58.763Z,24.93
2022-08-12T10:26:37.278Z,25.04
2022-08-12T10:30:03.804Z,25.19
2022-08-12T10:33:04.632Z,25.33
2022-08-12T10:36:21.006Z,25.44
2022-08-12T10:40:01.942Z,25.54
2022-08-12T10:43:20.643Z,25.67
2022-08-12T10:46:22.332Z,25.80
2022-08-12T10:50:03.113Z,25.96
2022-08-12T10:52:56.145Z,26.08
2022-08-12T10:55:57.886Z,26.20
2022-08-12T10:59:05.396Z,26.30
2022-08-12T11:04:23.367Z,26.45
2022-08-12T11:07:06.193Z,26.67
2022-08-12T11:08:57.115Z,26.99
2022-08-12T11:12:34.712Z,27.14
2022-08-12T11:16:04.266Z,27.19
2022-08-12T11:18:47.467Z,27.27
2022-08-12T11:22:02.890Z,27.37
2022-08-12T11:25:10.578Z,27.46
2022-08-12T11:28:14.926Z,27.56
2022-08-12T11:31:17.701Z,27.66
2022-08-12T11:34:53.085Z,27.78
2022-08-12T11:37:58.009Z,27.93
2022-08-12T11:41:02.366Z,28.08
2022-08-12T11:44:35.418Z,28.14
2022-08-12T11:47:25.725Z,28.31
2022-08-12T11:50:32.232Z,28.49
2022-08-12T11:53:57.543Z,28.51
2022-08-12T11:56:59.495Z,28.43
2022-08-12T12:03:25.021Z,28.34
2022-08-12T12:06:53.268Z,28.38
2022-08-12T12:09:55.766Z,28.39
2022-08-12T12:12:57.447Z,28.46
2022-08-12T12:16:00.241Z,28.54
2022-08-12T12:19:01.916Z,28.66
2022-08-12T12:22:03.743Z,28.75
2022-08-12T12:25:12.549Z,28.75
2022-08-12T12:28:36.520Z,28.76
2022-08-12T12:32:10.630Z,28.71
2022-08-12T12:35:44.528Z,28.68
2022-08-12T12:38:25.295Z,28.66
2022-08-12T12:42:54.337Z,28.63
2022-08-12T12:44:51.030Z,28.62
2022-08-12T12:48:17.281Z,28.65
2022-08-12T12:51:49.136Z,28.75
2022-08-12T12:54:52.677Z,28.88
2022-08-12T12:58:00.355Z,28.89
2022-08-12T13:01:04.898Z,28.89
2022-08-12T13:04:24.691Z,28.88
2022-08-12T13:07:54.726Z,28.88
2022-08-12T13:10:50.311Z,28.92
2022-08-12T13:14:09.118Z,28.91
2022-08-12T13:17:17.564Z,28.94
2022-08-12T13:20:38.498Z,29.03
2022-08-12T13:23:46.501Z,29.14
2022-08-12T13:26:49.727Z,29.21
2022-08-12T13:29:58.162Z,29.20
2022-08-12T13:33:06.211Z,29.18
2022-08-12T13:36:21.011Z,29.29
2022-08-12T13:39:24.502Z,29.32
2022-08-12T13:42:29.083Z,29.30
2022-08-12T13:45:31.812Z,29.20
2022-08-12T13:48:33.450Z,29.13
2022-08-12T13:51:41.256Z,29.08
2022-08-12T13:54:43.319Z,29.10
2022-08-12T13:58:00.021Z,29.14
2022-08-12T14:01:05.682Z,29.25
2022-08-12T14:04:11.610Z,29.28
2022-08-12T14:07:13.733Z,29.30
2022-08-12T14:10:37.793Z,29.31
2022-08-12T14:14:03.575Z,29.33
2022-08-12T14:17:05.750Z,29.29
2022-08-12T14:20:13.249Z,29.20
2022-08-12T14:24:01.521Z,29.12
2022-08-12T14:26:39.780Z,29.05
2022-08-12T14:30:05.106Z,29.03
2022-08-12T14:33:09.125Z,29.03
2022-08-12T14:36:13.388Z,29.07
2022-08-12T14:39:17.488Z,29.11
2022-08-12T14:42:19.997Z,29.13
2022-08-12T14:45:23.007Z,29.15
2022-08-12T14:48:25.535Z,29.18
2022-08-12T14:52:42.744Z,29.19
2022-08-12T14:58:14.219Z,29.13
2022-08-12T15:01:35.076Z,29.12
2022-08-12T15:04:36.738Z,29.03
2022-08-12T15:07:49.921Z,29.02
2022-08-12T15:10:55.534Z,29.01
2022-08-12T15:13:59.184Z,29.06
2022-08-12T15:17:01.169Z,29.02
2022-08-12T15:20:28.413Z,29.00
2022-08-12T15:23:28.943Z,28.96
2022-08-12T15:26:40.866Z,28.93
2022-08-12T15:29:42.688Z,28.88
2022-08-12T15:32:48.924Z,28.88
2022-08-12T15:35:54.014Z,28.97
2022-08-12T15:38:55.979Z,28.96
2022-08-12T15:42:01.985Z,28.97
2022-08-12T15:45:08.461Z,29.06
2022-08-12T15:48:16.666Z,29.08
2022-08-12T15:51:59.141Z,29.04
2022-08-12T15:54:52.731Z,28.95
2022-08-12T15:58:02.081Z,28.87
2022-08-12T16:01:08.796Z,28.83
2022-08-12T16:04:13.640Z,28.78
2022-08-12T16:07:29.834Z,28.69
2022-08-12T16:10:33.529Z,28.61
2022-08-12T16:13:36.421Z,28.56
2022-08-12T16:16:38.073Z,28.53
2022-08-12T16:20:03.922Z,28.55
2022-08-12T16:23:26.990Z,28.53
2022-08-12T16:26:36.678Z,28.52
2022-08-12T16:29:53.357Z,28.58
2022-08-12T16:32:58.478Z,28.64
2022-08-12T16:36:00.806Z,28.64
2022-08-12T16:39:04.157Z,28.60
2022-08-12T16:42:06.832Z,28.55
2022-08-12T16:45:10.640Z,28.51
2022-08-12T16:48:33.903Z,28.46
2022-08-12T16:51:40.319Z,28.39
2022-08-12T16:54:44.249Z,28.36
2022-08-12T16:57:48.696Z,28.32
2022-08-12T17:00:51.445Z,28.24
2022-08-12T17:04:09.088Z,28.14
2022-08-12T17:07:17.051Z,28.06
2022-08-12T17:10:36.930Z,27.97
2022-08-12T17:13:53.180Z,27.91
2022-08-12T17:16:55.813Z,27.86
2022-08-12T17:20:34.828Z,27.79
2022-08-12T17:23:33.388Z,27.71
2022-08-12T17:26:53.849Z,27.63
2022-08-12T17:30:00.780Z,27.55
2022-08-12T17:33:07.038Z,27.48
2022-08-12T17:36:10.690Z,27.43
2022-08-12T17:39:12.703Z,27.39
2022-08-12T17:42:32.615Z,27.34
2022-08-12T17:45:43.132Z,27.27
2022-08-12T17:48:55.196Z,27.20
2022-08-12T17:52:02.423Z,27.16
2022-08-12T17:55:33.579Z,27.10
2022-08-12T17:58:37.567Z,27.03
2022-08-12T18:01:44.196Z,26.98
2022-08-12T18:05:04.526Z,26.93
2022-08-12T18:08:11.112Z,26.86
2022-08-12T18:12:05.833Z,26.77
2022-08-12T18:15:01.418Z,26.67
2022-08-12T18:18:03.751Z,26.62
2022-08-12T18:21:09.108Z,26.54
2022-08-12T18:24:19.822Z,26.46
2022-08-12T18:27:30.061Z,26.33
2022-08-12T18:30:35.997Z,26.21
2022-08-12T18:33:45.897Z,26.08
2022-08-12T18:36:50.285Z,25.96
2022-08-12T18:40:12.530Z,25.85
2022-08-12T18:43:19.486Z,25.72
2022-08-12T18:46:29.251Z,25.62
2022-08-12T18:49:38.706Z,25.44
2022-08-12T18:52:44.876Z,25.31
2022-08-12T18:55:57.382Z,25.20
2022-08-12T18:59:02.950Z,25.11
2022-08-12T19:02:19.743Z,25.21
2022-08-12T19:05:53.039Z,24.99
2022-08-12T19:08:49.392Z,24.82
2022-08-12T19:12:10.635Z,24.69
2022-08-12T19:15:24.105Z,24.50
2022-08-12T19:18:29.259Z,24.41
2022-08-12T19:21:37.128Z,24.35
2022-08-12T19:24:57.968Z,24.28
2022-08-12T19:27:59.688Z,24.22
2022-08-12T19:31:55.872Z,24.15
2022-08-12T19:38:19.106Z,24.00
2022-08-12T19:41:22.983Z,23.93
2022-08-12T19:44:26.478Z,23.86
2022-08-12T19:47:31.240Z,23.79
2022-08-12T19:50:40.965Z,23.72
2022-08-12T19:53:58.169Z,23.64
2022-08-12T19:57:01.512Z,23.54
2022-08-12T20:00:07.409Z,23.47
2022-08-12T20:03:39.319Z,23.46
2022-08-12T20:06:51.615Z,23.41
2022-08-12T20:09:55.883Z,23.35
2022-08-12T20:13:18.556Z,23.28
2022-08-12T20:16:51.110Z,23.17
2022-08-12T20:20:01.078Z,23.09
2022-08-12T20:23:08.829Z,22.99
2022-08-12T20:26:11.223Z,22.90
2022-08-12T20:29:13.684Z,22.81
2022-08-12T20:32:15.328Z,22.74
2022-08-12T20:35:24.956Z,22.66
2022-08-12T20:38:42.181Z,22.53
2022-08-12T20:41:50.956Z,22.40
2022-08-12T20:44:54.176Z,22.32
2022-08-12T20:48:04.127Z,22.27
2022-08-12T20:51:10.415Z,22.19
2022-08-12T20:54:22.214Z,22.08
2022-08-12T20:57:24.035Z,22.00
2022-08-12T21:00:28.410Z,21.90
2022-08-12T21:03:52.642Z,21.83
2022-08-12T21:07:04.664Z,21.74
2022-08-12T21:10:11.536Z,21.64
2022-08-12T21:13:20.616Z,21.53
2022-08-12T21:16:35.290Z,21.47
2022-08-12T21:19:52.955Z,21.43
2022-08-12T21:22:56.076Z,21.41
2022-08-12T21:26:01.262Z,21.40
2022-08-12T21:29:12.517Z,21.39
2022-08-12T21:32:39.366Z,21.36
2022-08-12T21:35:40.158Z,21.33
2022-08-12T21:38:43.143Z,21.30
2022-08-12T21:41:50.065Z,21.26
2022-08-12T21:45:46.239Z,21.22
2022-08-12T21:48:14.969Z,21.19
2022-08-12T21:51:23.001Z,21.16
2022-08-12T21:54:26.081Z,21.07
2022-08-12T21:57:36.379Z,20.89
2022-08-12T22:00:52.275Z,20.73
2022-08-12T22:04:12.927Z,20.67
2022-08-12T22:07:18.601Z,20.62
2022-08-12T22:10:28.270Z,20.62
2022-08-12T22:14:08.001Z,20.59
2022-08-12T22:16:55.924Z,20.70
2022-08-12T22:19:57.589Z,20.58
2022-08-12T22:23:00.371Z,20.51
2022-08-12T22:26:08.062Z,20.40
2022-08-12T22:29:29.061Z,20.28
2022-08-12T22:32:30.839Z,20.16
2022-08-12T22:35:56.262Z,20.05
2022-08-12T22:38:59.462Z,19.93
2022-08-12T22:42:24.328Z,19.84
2022-08-12T22:45:48.405Z,19.72
2022-08-12T22:48:52.515Z,19.61
2022-08-12T22:52:00.999Z,19.52
2022-08-12T22:55:06.221Z,19.42
2022-08-12T22:58:12.522Z,19.34
2022-08-12T23:01:21.269Z,19.26
2022-08-12T23:04:36.020Z,19.18
2022-08-12T23:07:58.818Z,19.13
2022-08-12T23:11:06.086Z,19.06
2022-08-12T23:14:11.727Z,18.99
2022-08-12T23:17:40.376Z,18.93
2022-08-12T23:20:34.887Z,18.86
2022-08-12T23:23:57.573Z,18.81
2022-08-12T23:27:18.340Z,18.78
2022-08-12T23:30:31.205Z,18.72
2022-08-12T23:34:02.081Z,18.67
2022-08-12T23:36:59.600Z,18.58
2022-08-12T23:40:14.246Z,18.50
2022-08-12T23:43:17.775Z,18.43
2022-08-12T23:46:25.626Z,18.36
2022-08-12T23:49:56.208Z,18.28
2022-08-12T23:52:51.604Z,18.20
2022-08-12T23:55:56.864Z,18.12
2022-08-12T23:59:00.056Z,18.05
